createdAt,value
2019-04-24T00:01:43.325Z,32.72
2019-04-24T00:06:44.993Z,33.12
2019-04-24T00:09:13.020Z,33.34
2019-04-24T00:11:55.517Z,32.71
2019-04-24T00:14:38.883Z,32.74
2019-04-24T00:17:04.256Z,32.99
2019-04-24T00:19:26.193Z,33.27
2019-04-24T00:22:03.655Z,33.27
2019-04-24T00:24:25.654Z,32.81
2019-04-24T00:26:59.136Z,32.77
2019-04-24T00:29:36.585Z,32.27
2019-04-24T00:31:58.548Z,32.31
2019-04-24T00:36:58.767Z,32.26
2019-04-24T00:39:27.599Z,32.21
2019-04-24T00:42:06.359Z,32.60
2019-04-24T00:44:18.918Z,32.46
2019-04-24T00:47:00.891Z,32.72
2019-04-24T00:49:31.955Z,33.27
2019-04-24T00:54:24.457Z,34.08
2019-04-24T00:59:29.176Z,33.86
2019-04-24T01:02:23.824Z,33.43
2019-04-24T01:12:58.779Z,34.57
2019-04-24T01:15:28.233Z,34.65
2019-04-24T01:17:41.233Z,34.97
2019-04-24T01:30:46.899Z,34.93
2019-04-24T01:38:19.670Z,33.79
2019-04-24T01:45:58.102Z,33.67
2019-04-24T01:50:53.420Z,33.79
2019-04-24T01:53:19.052Z,33.72
2019-04-24T01:55:45.820Z,33.68
2019-04-24T02:01:26.643Z,34.04
2019-04-24T02:03:42.986Z,33.90
2019-04-24T02:06:17.432Z,34.26
2019-04-24T02:11:37.053Z,34.61
2019-04-24T02:14:00.282Z,34.90
2019-04-24T02:16:31.440Z,34.91
2019-04-24T02:18:51.305Z,35.11
2019-04-24T02:21:37.530Z,35.01
2019-04-24T02:26:30.538Z,34.70
2019-04-24T02:29:07.013Z,35.21
2019-04-24T02:31:39.648Z,35.49
2019-04-24T02:34:05.482Z,35.24
2019-04-24T02:36:50.350Z,35.12
2019-04-24T02:44:58.069Z,34.67
2019-04-24T02:47:19.435Z,34.54
2019-04-24T02:57:22.038Z,34.60
2019-04-24T03:02:34.483Z,34.43
2019-04-24T03:19:57.584Z,35.21
2019-04-24T03:27:49.379Z,35.19
2019-04-24T03:30:28.480Z,35.45
2019-04-24T03:33:15.579Z,35.64
2019-04-24T03:35:33.999Z,35.71
2019-04-24T03:40:50.522Z,34.69
2019-04-24T03:45:27.518Z,35.21
2019-04-24T03:51:00.248Z,35.55
2019-04-24T04:00:48.613Z,37.13
2019-04-24T04:03:38.446Z,36.80
2019-04-24T04:06:32.855Z,36.43
2019-04-24T04:08:50.090Z,36.65
2019-04-24T04:11:12.394Z,37.43
2019-04-24T04:16:05.672Z,38.39
2019-04-24T04:26:36.032Z,38.93
2019-04-24T04:36:55.927Z,38.97
2019-04-24T04:39:28.828Z,39.94
2019-04-24T04:41:59.270Z,40.04
2019-04-24T04:44:48.161Z,40.21
2019-04-24T04:57:58.839Z,38.82
2019-04-24T05:00:43.562Z,39.21
2019-04-24T05:03:07.632Z,38.88
2019-04-24T05:08:25.858Z,38.95
2019-04-24T05:10:29.565Z,38.61
2019-04-24T05:15:28.293Z,37.47
2019-04-24T05:20:43.209Z,37.15
2019-04-24T05:23:05.467Z,36.73
2019-04-24T05:28:07.570Z,36.84
2019-04-24T05:30:37.162Z,36.86
2019-04-24T05:38:19.400Z,37.62
2019-04-24T05:40:58.320Z,37.19
2019-04-24T05:46:13.856Z,36.32
2019-04-24T05:53:53.527Z,37.10
2019-04-24T05:56:31.344Z,37.32
2019-04-24T05:58:52.244Z,37.38
2019-04-24T06:01:55.484Z,37.16
2019-04-24T06:07:07.577Z,36.63
2019-04-24T06:12:17.665Z,36.00
2019-04-24T06:15:09.982Z,34.18
2019-04-24T06:17:29.595Z,34.36
2019-04-24T06:20:15.414Z,34.27
2019-04-24T06:25:06.645Z,34.10
2019-04-24T06:27:41.430Z,34.41
2019-04-24T06:37:55.879Z,34.20
2019-04-24T06:43:18.037Z,35.09
2019-04-24T06:48:15.916Z,35.29
2019-04-24T06:50:58.154Z,34.58
2019-04-24T06:53:04.128Z,34.88
2019-04-24T06:58:12.123Z,35.16
2019-04-24T07:00:56.826Z,35.00
2019-04-24T07:04:04.676Z,34.62
2019-04-24T07:08:37.216Z,33.12
2019-04-24T07:11:25.878Z,33.05
2019-04-24T07:14:02.906Z,32.09
2019-04-24T07:16:29.519Z,32.51
2019-04-24T07:18:39.738Z,32.08
2019-04-24T07:21:37.568Z,32.19
2019-04-24T07:24:12.865Z,32.37
2019-04-24T07:26:56.162Z,32.40
2019-04-24T07:29:27.884Z,32.25
2019-04-24T07:34:35.082Z,31.33
2019-04-24T07:36:55.470Z,31.37
2019-04-24T07:44:29.514Z,31.12
2019-04-24T07:47:06.335Z,31.63
2019-04-24T07:49:46.701Z,30.50
2019-04-24T07:54:49.080Z,29.83
2019-04-24T08:00:06.551Z,30.16
2019-04-24T08:04:56.581Z,30.05
2019-04-24T08:10:17.327Z,29.47
2019-04-24T08:22:33.163Z,29.39
2019-04-24T08:25:05.607Z,30.00
2019-04-24T08:27:39.567Z,29.43
2019-04-24T08:32:33.128Z,28.42
2019-04-24T08:34:53.487Z,28.61
2019-04-24T08:38:00.412Z,28.56
2019-04-24T08:40:10.500Z,28.36
2019-04-24T08:43:00.007Z,28.14
2019-04-24T08:45:39.699Z,27.27
2019-04-24T08:51:07.229Z,27.60
2019-04-24T08:53:02.196Z,27.10
2019-04-24T09:03:15.860Z,27.86
2019-04-24T09:05:58.099Z,27.03
2019-04-24T09:08:33.457Z,26.91
2019-04-24T09:11:14.223Z,26.48
2019-04-24T09:16:26.369Z,26.40
2019-04-24T09:21:23.305Z,27.28
2019-04-24T09:27:10.399Z,26.16
2019-04-24T09:30:00.536Z,26.00
2019-04-24T09:34:49.133Z,26.90
2019-04-24T09:37:21.932Z,26.63
2019-04-24T09:40:25.141Z,26.68
2019-04-24T09:45:03.446Z,26.71
2019-04-24T09:47:35.146Z,25.49
2019-04-24T09:50:01.116Z,25.88
2019-04-24T09:52:34.217Z,25.62
2019-04-24T09:55:02.136Z,25.64
2019-04-24T09:57:34.549Z,25.38
2019-04-24T09:59:52.315Z,25.80
2019-04-24T10:07:50.878Z,25.27
2019-04-24T10:15:39.198Z,25.97
2019-04-24T10:20:36.445Z,25.98
2019-04-24T10:23:35.199Z,25.86
2019-04-24T10:25:51.891Z,25.03
2019-04-24T10:29:08.583Z,25.20
2019-04-24T10:31:02.503Z,25.38
2019-04-24T10:33:55.630Z,24.87
2019-04-24T10:36:40.133Z,24.98
2019-04-24T10:39:16.473Z,24.83
2019-04-24T10:41:51.000Z,25.57
2019-04-24T10:44:24.210Z,26.36
2019-04-24T10:47:04.088Z,25.93
2019-04-24T10:49:29.519Z,25.87
2019-04-24T10:54:23.891Z,24.86
2019-04-24T10:56:50.203Z,25.33
2019-04-24T10:59:25.542Z,25.28
2019-04-24T11:02:20.526Z,26.58
2019-04-24T11:04:51.642Z,26.08
2019-04-24T11:07:19.600Z,25.93
2019-04-24T11:10:17.284Z,26.56
2019-04-24T11:12:52.253Z,26.08
2019-04-24T11:15:10.260Z,26.15
2019-04-24T11:17:46.739Z,26.25
2019-04-24T11:20:19.532Z,26.51
2019-04-24T11:23:05.675Z,26.89
2019-04-24T11:25:38.637Z,26.86
2019-04-24T11:28:12.008Z,26.72
2019-04-24T11:30:38.691Z,26.58
2019-04-24T11:33:33.196Z,26.93
2019-04-24T11:36:11.806Z,26.80
2019-04-24T11:38:52.640Z,25.53
2019-04-24T11:41:09.669Z,25.44
2019-04-24T11:43:50.521Z,24.97
2019-04-24T11:46:56.530Z,24.97
2019-04-24T11:54:09.614Z,25.90
2019-04-24T11:56:56.682Z,24.35
2019-04-24T11:59:03.919Z,25.10
2019-04-24T12:02:20.270Z,25.10
2019-04-24T12:04:49.886Z,26.12
2019-04-24T12:07:24.802Z,26.34
2019-04-24T12:12:14.413Z,26.45
2019-04-24T12:15:07.548Z,27.35
2019-04-24T12:17:29.531Z,27.22
2019-04-24T12:20:08.672Z,27.76
2019-04-24T12:22:48.121Z,27.04
2019-04-24T12:25:33.581Z,28.20
2019-04-24T12:28:04.137Z,27.54
2019-04-24T12:30:06.211Z,28.01
2019-04-24T12:32:54.696Z,28.06
2019-04-24T12:37:57.618Z,28.46
2019-04-24T12:40:31.892Z,27.66
2019-04-24T12:42:50.823Z,28.79
2019-04-24T12:47:46.372Z,28.50
2019-04-24T12:50:26.679Z,30.53
2019-04-24T12:52:58.514Z,30.20
2019-04-24T12:55:23.933Z,31.03
2019-04-24T13:00:35.451Z,30.75
2019-04-24T13:03:15.295Z,31.93
2019-04-24T13:08:29.466Z,32.78
2019-04-24T13:11:02.576Z,33.02
2019-04-24T13:13:24.833Z,31.62
2019-04-24T13:16:04.967Z,32.73
2019-04-24T13:18:52.836Z,34.06
2019-04-24T13:20:43.603Z,35.58
2019-04-24T13:23:23.344Z,38.79
2019-04-24T13:26:07.558Z,36.71
2019-04-24T13:31:23.598Z,42.23
2019-04-24T13:33:53.858Z,47.08
2019-04-24T13:39:10.175Z,49.20
2019-04-24T13:41:15.954Z,51.11
2019-04-24T13:46:10.239Z,51.99
2019-04-24T13:51:25.578Z,53.45
2019-04-24T13:54:03.830Z,55.18
2019-04-24T13:56:38.947Z,53.55
2019-04-24T14:01:35.282Z,53.90
2019-04-24T14:06:35.024Z,57.88
2019-04-24T14:14:05.465Z,60.06
2019-04-24T14:21:54.361Z,61.11
2019-04-24T14:24:19.117Z,61.63
2019-04-24T14:26:53.953Z,62.56
2019-04-24T14:29:22.785Z,63.96
2019-04-24T14:31:52.167Z,65.37
2019-04-24T14:36:49.211Z,66.54
2019-04-24T14:39:23.825Z,64.26
2019-04-24T14:41:55.654Z,64.82
2019-04-24T14:47:29.552Z,64.44
2019-04-24T14:50:09.324Z,64.57
2019-04-24T14:52:31.739Z,64.13
2019-04-24T15:00:03.433Z,66.15
2019-04-24T15:02:40.883Z,66.88
2019-04-24T15:05:03.467Z,65.75
2019-04-24T15:07:42.518Z,65.34
2019-04-24T15:10:03.703Z,65.25
2019-04-24T15:12:26.954Z,65.09
2019-04-24T15:15:08.991Z,65.96
2019-04-24T15:22:45.199Z,65.18
2019-04-24T15:25:22.776Z,63.73
2019-04-24T15:27:48.324Z,60.53
2019-04-24T15:30:11.063Z,62.97
2019-04-24T15:32:40.018Z,63.32
2019-04-24T15:35:20.170Z,63.06
2019-04-24T15:37:43.434Z,62.14
2019-04-24T15:40:32.784Z,62.70
2019-04-24T15:42:53.266Z,62.51
2019-04-24T15:45:11.741Z,63.47
2019-04-24T15:47:58.216Z,62.40
2019-04-24T15:50:18.462Z,60.97
2019-04-24T15:52:13.605Z,60.06
2019-04-24T15:54:42.145Z,62.04
2019-04-24T15:57:11.205Z,58.53
2019-04-24T16:00:13.517Z,58.44
2019-04-24T16:02:51.821Z,57.28
2019-04-24T16:04:54.718Z,59.66
2019-04-24T16:07:16.643Z,55.83
2019-04-24T16:09:46.785Z,56.58
2019-04-24T16:12:15.316Z,58.18
2019-04-24T16:15:03.689Z,57.19
2019-04-24T16:22:47.377Z,58.07
2019-04-24T16:27:45.914Z,58.63
2019-04-24T16:30:09.554Z,57.88
2019-04-24T16:32:52.433Z,58.31
2019-04-24T16:35:24.865Z,58.70
2019-04-24T16:37:44.428Z,59.60
2019-04-24T16:40:31.180Z,60.71
2019-04-24T16:45:17.824Z,59.53
2019-04-24T16:48:24.056Z,61.09
2019-04-24T16:53:03.313Z,63.85
2019-04-24T16:55:27.833Z,65.95
2019-04-24T17:03:02.917Z,64.38
2019-04-24T17:05:38.510Z,66.41
2019-04-24T17:08:04.300Z,63.90
2019-04-24T17:10:22.831Z,63.91
2019-04-24T17:13:10.298Z,61.76
2019-04-24T17:15:31.297Z,62.66
2019-04-24T17:18:13.993Z,63.81
2019-04-24T17:20:57.997Z,62.21
2019-04-24T17:23:23.884Z,62.99
2019-04-24T17:25:55.439Z,62.52
2019-04-24T17:30:49.753Z,65.35
2019-04-24T17:37:47.991Z,61.00
2019-04-24T17:40:20.816Z,64.57
2019-04-24T17:43:08.254Z,63.22
2019-04-24T17:45:55.799Z,64.65
2019-04-24T17:48:12.514Z,63.73
2019-04-24T17:50:43.507Z,64.98
2019-04-24T17:55:45.139Z,66.21
2019-04-24T17:57:56.397Z,68.34
2019-04-24T18:00:43.791Z,66.09
2019-04-24T18:03:15.884Z,68.88
2019-04-24T18:05:42.338Z,70.97
2019-04-24T18:08:12.108Z,70.44
2019-04-24T18:10:41.742Z,68.19
2019-04-24T18:13:11.390Z,66.41
2019-04-24T18:15:42.216Z,66.30
2019-04-24T18:18:11.122Z,65.98
2019-04-24T18:20:39.677Z,63.91
2019-04-24T18:23:09.116Z,63.41
2019-04-24T18:25:42.082Z,64.08
2019-04-24T18:28:12.004Z,61.46
2019-04-24T18:30:42.434Z,62.66
2019-04-24T18:33:11.982Z,66.70
2019-04-24T18:35:42.572Z,67.91
2019-04-24T18:38:15.894Z,68.35
2019-04-24T18:40:41.818Z,68.85
2019-04-24T18:43:12.087Z,65.77
2019-04-24T18:45:42.111Z,67.90
2019-04-24T18:48:12.329Z,67.63
2019-04-24T18:50:41.570Z,66.87
2019-04-24T18:53:10.904Z,64.50
2019-04-24T18:55:42.333Z,62.04
2019-04-24T18:58:11.733Z,60.67
2019-04-24T19:00:41.203Z,60.30
2019-04-24T19:03:12.582Z,61.11
2019-04-24T19:05:41.548Z,59.50
2019-04-24T19:08:11.602Z,57.94
2019-04-24T19:10:41.377Z,59.79
2019-04-24T19:13:11.515Z,57.52
2019-04-24T19:15:41.037Z,59.80
2019-04-24T19:18:09.621Z,57.90
2019-04-24T19:20:38.630Z,57.59
2019-04-24T19:23:09.033Z,56.93
2019-04-24T19:25:37.522Z,58.34
2019-04-24T19:28:06.188Z,58.88
2019-04-24T19:30:34.647Z,59.51
2019-04-24T19:33:03.158Z,58.19
2019-04-24T19:35:31.709Z,59.09
2019-04-24T19:38:01.401Z,61.27
2019-04-24T19:40:37.648Z,57.82
2019-04-24T19:43:01.543Z,55.51
2019-04-24T19:45:31.446Z,55.83
2019-04-24T19:48:01.452Z,58.19
2019-04-24T19:50:30.040Z,58.67
2019-04-24T19:52:58.761Z,59.65
2019-04-24T19:55:27.342Z,59.30
2019-04-24T19:57:55.911Z,59.13
2019-04-24T20:00:26.141Z,58.61
2019-04-24T20:02:54.652Z,59.07
2019-04-24T20:05:23.788Z,60.35
2019-04-24T20:07:52.391Z,61.28
2019-04-24T20:10:37.589Z,59.98
2019-04-24T20:13:06.113Z,61.06
2019-04-24T20:15:35.203Z,61.20
2019-04-24T20:18:03.836Z,61.36
2019-04-24T20:20:32.340Z,59.66
2019-04-24T20:23:02.070Z,56.32
2019-04-24T20:25:31.340Z,53.61
2019-04-24T20:28:01.404Z,54.35
2019-04-24T20:30:31.448Z,59.06
2019-04-24T20:33:01.408Z,57.31
2019-04-24T20:35:30.019Z,55.68
2019-04-24T20:37:58.482Z,57.51
2019-04-24T20:40:27.209Z,59.65
2019-04-24T20:42:55.768Z,56.15
2019-04-24T20:45:24.344Z,56.50
2019-04-24T20:47:52.974Z,55.98
2019-04-24T20:50:22.365Z,57.27
2019-04-24T20:52:51.869Z,54.14
2019-04-24T20:55:21.142Z,56.59
2019-04-24T20:57:51.921Z,54.67
2019-04-24T21:00:22.631Z,52.81
2019-04-24T21:02:52.050Z,52.77
2019-04-24T21:05:23.336Z,52.86
2019-04-24T21:08:09.721Z,53.15
2019-04-24T21:10:39.708Z,52.76
2019-04-24T21:13:08.271Z,52.15
2019-04-24T21:15:36.940Z,51.79
2019-04-24T21:18:05.597Z,52.61
2019-04-24T21:20:34.074Z,52.08
2019-04-24T21:23:02.598Z,50.79
2019-04-24T21:25:31.500Z,51.62
2019-04-24T21:28:00.181Z,52.52
2019-04-24T21:30:28.665Z,52.66
2019-04-24T21:32:57.264Z,52.75
2019-04-24T21:35:26.601Z,52.82
2019-04-24T21:37:55.203Z,52.55
2019-04-24T21:40:24.131Z,52.69
2019-04-24T21:42:52.724Z,51.49
2019-04-24T21:45:22.229Z,51.75
2019-04-24T21:47:50.736Z,50.58
2019-04-24T21:50:19.379Z,49.90
2019-04-24T21:52:47.877Z,52.25
2019-04-24T21:55:16.374Z,48.83
2019-04-24T21:58:04.866Z,47.97
2019-04-24T22:00:41.060Z,48.38
2019-04-24T22:03:12.517Z,49.15
2019-04-24T22:05:42.628Z,48.90
2019-04-24T22:08:11.746Z,48.13
2019-04-24T22:10:41.399Z,48.08
2019-04-24T22:13:11.988Z,46.63
2019-04-24T22:15:41.439Z,47.83
2019-04-24T22:18:10.048Z,45.07
2019-04-24T22:20:41.981Z,49.96
2019-04-24T22:23:12.396Z,46.70
2019-04-24T22:25:45.225Z,44.11
2019-04-24T22:28:15.184Z,48.32
2019-04-24T22:30:57.149Z,48.13
2019-04-24T22:33:27.046Z,46.13
2019-04-24T22:35:55.684Z,44.32
2019-04-24T22:38:25.809Z,44.39
2019-04-24T22:40:58.642Z,41.56
2019-04-24T22:43:27.543Z,43.19
2019-04-24T22:45:56.746Z,41.64
2019-04-24T22:48:25.311Z,42.94
2019-04-24T22:50:54.151Z,43.57
2019-04-24T22:53:25.508Z,43.50
2019-04-24T22:55:52.962Z,43.35
2019-04-24T22:58:21.453Z,43.06
2019-04-24T23:00:50.093Z,42.29
2019-04-24T23:03:18.786Z,43.00
2019-04-24T23:05:47.347Z,41.91
2019-04-24T23:08:16.100Z,41.37
2019-04-24T23:10:45.887Z,41.43
2019-04-24T23:13:15.261Z,43.30
2019-04-24T23:15:43.883Z,43.13
2019-04-24T23:18:13.539Z,42.96
2019-04-24T23:20:46.861Z,42.79
2019-04-24T23:23:22.755Z,40.47
2019-04-24T23:26:04.500Z,40.65
2019-04-24T23:28:38.508Z,40.66
2019-04-24T23:31:08.900Z,41.12
2019-04-24T23:33:45.899Z,40.49
2019-04-24T23:36:14.507Z,40.13
2019-04-24T23:38:43.001Z,36.66
2019-04-24T23:41:13.045Z,37.32
2019-04-24T23:43:42.524Z,36.88
2019-04-24T23:46:11.844Z,35.21
2019-04-24T23:48:41.536Z,37.78
2019-04-24T23:51:10.656Z,38.75
2019-04-24T23:53:39.593Z,36.34
2019-04-24T23:56:08.660Z,34.96
2019-04-24T23:58:37.768Z,36.82
